sensor_id;sensor_type;location;lat;lon;timestamp;pressure;altitude;pressure_sealevel;temperature;humidity
6464;BME280;3265;42.694;23.282;2023-03-20T00:00:27;94975.81;;;6.37;81.46
6464;BME280;3265;42.694;23.282;2023-03-20T00:02:54;94963.50;;;6.39;80.37
6464;BME280;3265;42.694;23.282;2023-03-20T00:05:24;94976.91;;;6.28;81.55
6464;BME280;3265;42.694;23.282;2023-03-20T00:08:12;94928.56;;;6.01;81.73
6464;BME280;3265;42.694;23.282;2023-03-20T00:10:41;94957.84;;;6.08;81.44
6464;BME280;3265;42.694;23.282;2023-03-20T00:13:13;94963.97;;;6.07;81.82
6464;BME280;3265;42.694;23.282;2023-03-20T00:15:48;94948.16;;;5.95;82.13
6464;BME280;3265;42.694;23.282;2023-03-20T00:18:17;94957.31;;;5.98;83.48
6464;BME280;3265;42.694;23.282;2023-03-20T00:20:48;94956.72;;;5.96;83.68
6464;BME280;3265;42.694;23.282;2023-03-20T00:23:15;94952.78;;;6.00;83.75
6464;BME280;3265;42.694;23.282;2023-03-20T00:25:45;94952.88;;;5.92;83.65
6464;BME280;3265;42.694;23.282;2023-03-20T00:28:41;94958.44;;;5.89;84.20
6464;BME280;3265;42.694;23.282;2023-03-20T00:31:15;94950.94;;;5.94;83.60
6464;BME280;3265;42.694;23.282;2023-03-20T00:33:46;94952.00;;;5.85;84.40
6464;BME280;3265;42.694;23.282;2023-03-20T00:36:13;94958.13;;;5.98;83.97
6464;BME280;3265;42.694;23.282;2023-03-20T00:38:40;94948.97;;;5.96;83.79
6464;BME280;3265;42.694;23.282;2023-03-20T00:41:19;94949.16;;;5.94;83.61
6464;BME280;3265;42.694;23.282;2023-03-20T00:43:48;94941.84;;;5.83;83.87
6464;BME280;3265;42.694;23.282;2023-03-20T00:46:17;94952.00;;;5.85;84.37
6464;BME280;3265;42.694;23.282;2023-03-20T00:48:44;94934.78;;;5.70;84.54
6464;BME280;3265;42.694;23.282;2023-03-20T00:51:12;94925.28;;;5.56;85.59
6464;BME280;3265;42.694;23.282;2023-03-20T00:53:39;94943.66;;;5.83;84.60
6464;BME280;3265;42.694;23.282;2023-03-20T00:56:08;94948.16;;;5.81;85.13
6464;BME280;3265;42.694;23.282;2023-03-20T00:58:44;94930.16;;;5.66;85.39
6464;BME280;3265;42.694;23.282;2023-03-20T01:01:11;94938.78;;;5.73;85.22
6464;BME280;3265;42.694;23.282;2023-03-20T01:03:38;94937.34;;;5.70;85.02
6464;BME280;3265;42.694;23.282;2023-03-20T01:06:05;94934.88;;;5.62;85.34
6464;BME280;3265;42.694;23.282;2023-03-20T01:08:32;94935.06;;;5.61;85.73
6464;BME280;3265;42.694;23.282;2023-03-20T01:10:59;94928.72;;;5.63;85.72
6464;BME280;3265;42.694;23.282;2023-03-20T01:13:28;94932.47;;;5.61;86.38
6464;BME280;3265;42.694;23.282;2023-03-20T01:15:57;94927.22;;;5.54;86.52
6464;BME280;3265;42.694;23.282;2023-03-20T01:18:25;94913.28;;;5.49;86.30
6464;BME280;3265;42.694;23.282;2023-03-20T01:20:52;94926.25;;;5.55;85.92
6464;BME280;3265;42.694;23.282;2023-03-20T01:23:20;94915.41;;;5.60;84.93
6464;BME280;3265;42.694;23.282;2023-03-20T01:25:48;94921.34;;;5.60;85.78
6464;BME280;3265;42.694;23.282;2023-03-20T01:28:17;94906.25;;;5.57;86.11
6464;BME280;3265;42.694;23.282;2023-03-20T01:30:45;94913.22;;;5.57;86.65
6464;BME280;3265;42.694;23.282;2023-03-20T01:33:15;94907.28;;;5.42;85.97
6464;BME280;3265;42.694;23.282;2023-03-20T01:35:43;94914.53;;;5.53;86.36
6464;BME280;3265;42.694;23.282;2023-03-20T01:38:17;94919.81;;;5.45;87.35
6464;BME280;3265;42.694;23.282;2023-03-20T01:40:49;94921.75;;;5.43;86.68
6464;BME280;3265;42.694;23.282;2023-03-20T01:43:21;94918.28;;;5.36;87.65
6464;BME280;3265;42.694;23.282;2023-03-20T01:45:55;94928.41;;;5.37;86.97
6464;BME280;3265;42.694;23.282;2023-03-20T01:48:34;94926.84;;;5.36;87.77
6464;BME280;3265;42.694;23.282;2023-03-20T01:51:02;94926.28;;;5.26;87.65
6464;BME280;3265;42.694;23.282;2023-03-20T01:53:29;94934.22;;;5.25;87.77
6464;BME280;3265;42.694;23.282;2023-03-20T01:55:57;94932.34;;;5.19;88.48
6464;BME280;3265;42.694;23.282;2023-03-20T01:58:29;94925.69;;;5.24;88.21
6464;BME280;3265;42.694;23.282;2023-03-20T02:01:00;94935.44;;;5.29;87.58
6464;BME280;3265;42.694;23.282;2023-03-20T02:03:29;94933.66;;;5.29;88.16
6464;BME280;3265;42.694;23.282;2023-03-20T02:05:57;94933.22;;;5.26;88.56
6464;BME280;3265;42.694;23.282;2023-03-20T02:08:26;94909.06;;;5.12;88.78
6464;BME280;3265;42.694;23.282;2023-03-20T02:10:55;94920.34;;;5.11;88.80
6464;BME280;3265;42.694;23.282;2023-03-20T02:13:23;94914.13;;;5.05;89.70
6464;BME280;3265;42.694;23.282;2023-03-20T02:16:01;94919.56;;;5.10;89.01
6464;BME280;3265;42.694;23.282;2023-03-20T02:18:30;94932.50;;;5.02;90.23
6464;BME280;3265;42.694;23.282;2023-03-20T02:21:34;94926.66;;;5.08;88.88
6464;BME280;3265;42.694;23.282;2023-03-20T02:27:22;94927.63;;;4.93;89.69
6464;BME280;3265;42.694;23.282;2023-03-20T02:39:39;94913.59;;;4.95;90.07
6464;BME280;3265;42.694;23.282;2023-03-20T02:42:15;94913.34;;;4.90;90.21
6464;BME280;3265;42.694;23.282;2023-03-20T02:44:50;94922.75;;;4.98;89.71
6464;BME280;3265;42.694;23.282;2023-03-20T02:47:21;94921.13;;;4.97;89.94
6464;BME280;3265;42.694;23.282;2023-03-20T02:49:54;94900.97;;;4.86;89.62
6464;BME280;3265;42.694;23.282;2023-03-20T02:52:30;94914.19;;;4.83;89.81
6464;BME280;3265;42.694;23.282;2023-03-20T02:55:09;94922.13;;;4.81;90.46
6464;BME280;3265;42.694;23.282;2023-03-20T02:57:44;94913.94;;;4.78;90.27
6464;BME280;3265;42.694;23.282;2023-03-20T03:00:19;94909.31;;;4.73;90.14
6464;BME280;3265;42.694;23.282;2023-03-20T03:02:51;94916.25;;;4.73;90.24
6464;BME280;3265;42.694;23.282;2023-03-20T03:05:26;94915.34;;;4.66;90.26
6464;BME280;3265;42.694;23.282;2023-03-20T03:07:56;94916.84;;;4.75;90.17
6464;BME280;3265;42.694;23.282;2023-03-20T03:10:30;94913.03;;;4.71;89.90
6464;BME280;3265;42.694;23.282;2023-03-20T03:13:00;94906.28;;;4.70;90.36
6464;BME280;3265;42.694;23.282;2023-03-20T03:15:32;94915.91;;;4.76;90.08
6464;BME280;3265;42.694;23.282;2023-03-20T03:18:01;94907.81;;;4.79;89.91
6464;BME280;3265;42.694;23.282;2023-03-20T03:20:31;94912.66;;;4.74;90.23
6464;BME280;3265;42.694;23.282;2023-03-20T03:22:58;94899.88;;;4.66;90.17
6464;BME280;3265;42.694;23.282;2023-03-20T03:25:31;94904.41;;;4.64;90.06
6464;BME280;3265;42.694;23.282;2023-03-20T03:28:02;94908.06;;;4.69;90.84
6464;BME280;3265;42.694;23.282;2023-03-20T03:30:36;94916.25;;;4.73;89.37
6464;BME280;3265;42.694;23.282;2023-03-20T03:33:13;94914.38;;;4.67;90.23
6464;BME280;3265;42.694;23.282;2023-03-20T03:35:45;94886.34;;;4.34;91.42
6464;BME280;3265;42.694;23.282;2023-03-20T03:38:25;94916.44;;;4.48;91.38
6464;BME280;3265;42.694;23.282;2023-03-20T03:41:06;94916.53;;;4.40;92.00
6464;BME280;3265;42.694;23.282;2023-03-20T03:43:40;94916.56;;;4.55;91.28
6464;BME280;3265;42.694;23.282;2023-03-20T03:46:13;94914.78;;;4.55;91.50
6464;BME280;3265;42.694;23.282;2023-03-20T03:48:46;94888.91;;;4.34;92.46
6464;BME280;3265;42.694;23.282;2023-03-20T03:51:16;94906.63;;;4.52;91.81
6464;BME280;3265;42.694;23.282;2023-03-20T03:53:49;94908.38;;;4.51;91.39
6464;BME280;3265;42.694;23.282;2023-03-20T03:56:23;94905.34;;;4.48;91.60
6464;BME280;3265;42.694;23.282;2023-03-20T03:58:54;94895.41;;;4.45;91.38
6464;BME280;3265;42.694;23.282;2023-03-20T04:01:22;94894.19;;;4.41;91.86
6464;BME280;3265;42.694;23.282;2023-03-20T04:03:51;94901.78;;;4.34;92.44
6464;BME280;3265;42.694;23.282;2023-03-20T04:06:19;94904.00;;;4.37;92.59
6464;BME280;3265;42.694;23.282;2023-03-20T04:08:46;94904.91;;;4.44;91.68
6464;BME280;3265;42.694;23.282;2023-03-20T04:11:35;94898.31;;;4.42;90.97
6464;BME280;3265;42.694;23.282;2023-03-20T04:14:02;94892.41;;;4.41;91.95
6464;BME280;3265;42.694;23.282;2023-03-20T04:16:29;94894.00;;;4.42;90.77
6464;BME280;3265;42.694;23.282;2023-03-20T04:18:56;94891.16;;;4.37;91.90
6464;BME280;3265;42.694;23.282;2023-03-20T04:21:23;94886.97;;;4.36;92.28
6464;BME280;3265;42.694;23.282;2023-03-20T04:23:52;94879.88;;;4.38;92.96
6464;BME280;3265;42.694;23.282;2023-03-20T04:26:26;94860.06;;;4.24;92.68
6464;BME280;3265;42.694;23.282;2023-03-20T04:28:55;94887.41;;;4.40;91.90
6464;BME280;3265;42.694;23.282;2023-03-20T04:31:22;94890.00;;;4.40;91.92
6464;BME280;3265;42.694;23.282;2023-03-20T04:33:48;94882.59;;;4.22;92.33
6464;BME280;3265;42.694;23.282;2023-03-20T04:36:15;94893.44;;;4.32;92.01
6464;BME280;3265;42.694;23.282;2023-03-20T04:38:42;94894.28;;;4.25;93.41
6464;BME280;3265;42.694;23.282;2023-03-20T04:41:09;94874.47;;;4.11;93.50
6464;BME280;3265;42.694;23.282;2023-03-20T04:43:36;94909.22;;;4.29;92.69
6464;BME280;3265;42.694;23.282;2023-03-20T04:46:08;94918.97;;;4.34;92.14
6464;BME280;3265;42.694;23.282;2023-03-20T04:48:35;94918.63;;;4.37;92.71
6464;BME280;3265;42.694;23.282;2023-03-20T04:51:01;94916.41;;;4.34;92.48
6464;BME280;3265;42.694;23.282;2023-03-20T04:53:28;94918.03;;;4.35;92.97
6464;BME280;3265;42.694;23.282;2023-03-20T04:55:55;94927.50;;;4.34;92.93
6464;BME280;3265;42.694;23.282;2023-03-20T04:58:22;94922.81;;;4.38;92.64
6464;BME280;3265;42.694;23.282;2023-03-20T05:00:49;94925.56;;;4.36;93.23
6464;BME280;3265;42.694;23.282;2023-03-20T05:03:17;94930.34;;;4.39;93.27
6464;BME280;3265;42.694;23.282;2023-03-20T05:05:44;94923.28;;;4.41;93.11
6464;BME280;3265;42.694;23.282;2023-03-20T05:08:11;94923.28;;;4.41;93.64
6464;BME280;3265;42.694;23.282;2023-03-20T05:10:37;94923.09;;;4.43;92.90
6464;BME280;3265;42.694;23.282;2023-03-20T05:13:04;94928.84;;;4.45;93.11
6464;BME280;3265;42.694;23.282;2023-03-20T05:15:31;94927.91;;;4.46;93.79
6464;BME280;3265;42.694;23.282;2023-03-20T05:17:58;94937.50;;;4.52;93.97
6464;BME280;3265;42.694;23.282;2023-03-20T05:20:26;94944.88;;;4.55;93.53
6464;BME280;3265;42.694;23.282;2023-03-20T05:22:53;94937.06;;;4.63;93.41
6464;BME280;3265;42.694;23.282;2023-03-20T05:25:20;94938.38;;;4.59;93.30
6464;BME280;3265;42.694;23.282;2023-03-20T05:27:47;94944.97;;;4.76;92.56
6464;BME280;3265;42.694;23.282;2023-03-20T05:30:18;94937.56;;;4.81;93.18
6464;BME280;3265;42.694;23.282;2023-03-20T05:32:45;94939.84;;;4.91;93.01
6464;BME280;3265;42.694;23.282;2023-03-20T05:35:11;94942.38;;;4.99;93.03
6464;BME280;3265;42.694;23.282;2023-03-20T05:37:40;94939.72;;;5.07;92.16
6464;BME280;3265;42.694;23.282;2023-03-20T05:40:11;94945.03;;;5.05;92.30
6464;BME280;3265;42.694;23.282;2023-03-20T05:42:38;94933.56;;;5.08;91.77
6464;BME280;3265;42.694;23.282;2023-03-20T05:45:07;94940.69;;;5.21;92.15
6464;BME280;3265;42.694;23.282;2023-03-20T05:47:36;94946.91;;;5.26;91.95
6464;BME280;3265;42.694;23.282;2023-03-20T05:50:04;94939.53;;;5.38;91.05
6464;BME280;3265;42.694;23.282;2023-03-20T05:52:31;94941.22;;;5.45;89.57
6464;BME280;3265;42.694;23.282;2023-03-20T05:54:59;94949.22;;;5.50;89.73
6464;BME280;3265;42.694;23.282;2023-03-20T05:57:26;94946.88;;;5.55;89.60
6464;BME280;3265;42.694;23.282;2023-03-20T05:59:54;94941.38;;;5.58;90.19
6464;BME280;3265;42.694;23.282;2023-03-20T06:02:20;94941.81;;;5.62;90.21
6464;BME280;3265;42.694;23.282;2023-03-20T06:04:47;94940.47;;;5.66;90.02
6464;BME280;3265;42.694;23.282;2023-03-20T06:07:14;94945.59;;;5.81;88.78
6464;BME280;3265;42.694;23.282;2023-03-20T06:09:41;94944.00;;;5.94;87.59
6464;BME280;3265;42.694;23.282;2023-03-20T06:12:09;94948.00;;;5.97;87.24
6464;BME280;3265;42.694;23.282;2023-03-20T06:14:36;94943.25;;;6.00;87.76
6464;BME280;3265;42.694;23.282;2023-03-20T06:17:03;94947.06;;;6.04;87.46
6464;BME280;3265;42.694;23.282;2023-03-20T06:19:30;94945.78;;;6.15;86.74
6464;BME280;3265;42.694;23.282;2023-03-20T06:21:57;94942.06;;;6.17;86.76
6464;BME280;3265;42.694;23.282;2023-03-20T06:24:24;94930.94;;;6.17;86.45
6464;BME280;3265;42.694;23.282;2023-03-20T06:26:51;94941.50;;;6.22;85.09
6464;BME280;3265;42.694;23.282;2023-03-20T06:29:19;94951.53;;;6.32;85.16
6464;BME280;3265;42.694;23.282;2023-03-20T06:31:46;94949.19;;;6.37;84.77
6464;BME280;3265;42.694;23.282;2023-03-20T06:34:13;94954.22;;;6.45;84.58
6464;BME280;3265;42.694;23.282;2023-03-20T06:36:39;94937.69;;;6.39;84.34
6464;BME280;3265;42.694;23.282;2023-03-20T06:39:06;94955.09;;;6.52;84.44
6464;BME280;3265;42.694;23.282;2023-03-20T06:41:33;94949.00;;;6.59;84.07
6464;BME280;3265;42.694;23.282;2023-03-20T06:44:00;94957.03;;;6.71;83.76
6464;BME280;3265;42.694;23.282;2023-03-20T06:46:29;94957.31;;;6.82;82.39
6464;BME280;3265;42.694;23.282;2023-03-20T06:48:57;94953.25;;;6.95;82.25
6464;BME280;3265;42.694;23.282;2023-03-20T06:51:24;94949.94;;;7.07;80.87
6464;BME280;3265;42.694;23.282;2023-03-20T06:53:51;94939.47;;;7.15;80.56
6464;BME280;3265;42.694;23.282;2023-03-20T06:56:18;94945.28;;;7.24;79.67
6464;BME280;3265;42.694;23.282;2023-03-20T06:58:44;94946.69;;;7.26;80.28
6464;BME280;3265;42.694;23.282;2023-03-20T07:01:13;94951.75;;;7.41;78.81
6464;BME280;3265;42.694;23.282;2023-03-20T07:03:42;94933.66;;;7.41;77.95
6464;BME280;3265;42.694;23.282;2023-03-20T07:06:10;94937.69;;;7.57;77.09
6464;BME280;3265;42.694;23.282;2023-03-20T07:08:38;94928.50;;;7.48;77.55
6464;BME280;3265;42.694;23.282;2023-03-20T07:11:05;94946.28;;;7.64;77.96
6464;BME280;3265;42.694;23.282;2023-03-20T07:13:32;94935.97;;;7.77;77.62
6464;BME280;3265;42.694;23.282;2023-03-20T07:16:00;94919.09;;;7.81;75.58
6464;BME280;3265;42.694;23.282;2023-03-20T07:18:28;94934.50;;;8.02;75.39
6464;BME280;3265;42.694;23.282;2023-03-20T07:20:59;94935.69;;;8.06;75.11
6464;BME280;3265;42.694;23.282;2023-03-20T07:23:27;94938.50;;;8.18;74.17
6464;BME280;3265;42.694;23.282;2023-03-20T07:25:55;94932.34;;;8.19;73.73
6464;BME280;3265;42.694;23.282;2023-03-20T07:28:22;94926.56;;;8.23;73.52
6464;BME280;3265;42.694;23.282;2023-03-20T07:30:50;94936.75;;;8.31;73.37
6464;BME280;3265;42.694;23.282;2023-03-20T07:33:22;94937.59;;;8.38;73.69
6464;BME280;3265;42.694;23.282;2023-03-20T07:35:51;94946.16;;;8.45;73.60
6464;BME280;3265;42.694;23.282;2023-03-20T07:38:20;94933.59;;;8.49;73.81
6464;BME280;3265;42.694;23.282;2023-03-20T07:40:47;94933.22;;;8.65;72.20
6464;BME280;3265;42.694;23.282;2023-03-20T07:43:14;94937.41;;;8.73;71.31
6464;BME280;3265;42.694;23.282;2023-03-20T07:45:41;94944.41;;;8.85;70.33
6464;BME280;3265;42.694;23.282;2023-03-20T07:48:08;94932.41;;;8.78;69.96
6464;BME280;3265;42.694;23.282;2023-03-20T07:50:35;94944.97;;;8.87;70.92
6464;BME280;3265;42.694;23.282;2023-03-20T07:53:02;94944.00;;;8.88;71.24
6464;BME280;3265;42.694;23.282;2023-03-20T07:55:30;94943.38;;;8.99;71.14
6464;BME280;3265;42.694;23.282;2023-03-20T07:57:57;94930.78;;;9.09;69.84
6464;BME280;3265;42.694;23.282;2023-03-20T08:00:25;94932.19;;;9.19;69.30
6464;BME280;3265;42.694;23.282;2023-03-20T08:02:52;94930.38;;;9.19;71.00
6464;BME280;3265;42.694;23.282;2023-03-20T08:05:21;94922.41;;;9.27;70.96
6464;BME280;3265;42.694;23.282;2023-03-20T08:07:49;94935.91;;;9.49;71.33
6464;BME280;3265;42.694;23.282;2023-03-20T08:10:16;94943.88;;;9.54;68.67
6464;BME280;3265;42.694;23.282;2023-03-20T08:12:44;94932.28;;;9.56;70.91
6464;BME280;3265;42.694;23.282;2023-03-20T08:15:12;94904.75;;;9.55;69.52
6464;BME280;3265;42.694;23.282;2023-03-20T08:17:41;94930.19;;;9.85;68.89
6464;BME280;3265;42.694;23.282;2023-03-20T08:20:09;94936.59;;;9.82;66.52
6464;BME280;3265;42.694;23.282;2023-03-20T08:22:36;94940.16;;;9.88;66.22
6464;BME280;3265;42.694;23.282;2023-03-20T08:25:03;94931.16;;;9.90;65.14
6464;BME280;3265;42.694;23.282;2023-03-20T08:27:30;94936.56;;;9.95;66.49
6464;BME280;3265;42.694;23.282;2023-03-20T08:29:59;94937.63;;;10.19;65.40
6464;BME280;3265;42.694;23.282;2023-03-20T08:32:25;94942.00;;;10.25;66.13
6464;BME280;3265;42.694;23.282;2023-03-20T08:34:52;94923.28;;;10.16;66.01
6464;BME280;3265;42.694;23.282;2023-03-20T08:37:20;94939.72;;;10.42;64.77
6464;BME280;3265;42.694;23.282;2023-03-20T08:39:47;94928.69;;;10.46;62.46
6464;BME280;3265;42.694;23.282;2023-03-20T08:42:14;94931.81;;;10.61;62.18
6464;BME280;3265;42.694;23.282;2023-03-20T08:44:41;94936.69;;;10.76;61.65
6464;BME280;3265;42.694;23.282;2023-03-20T08:47:09;94939.75;;;10.91;60.46
6464;BME280;3265;42.694;23.282;2023-03-20T08:49:36;94935.06;;;11.00;60.75
6464;BME280;3265;42.694;23.282;2023-03-20T08:52:03;94941.19;;;11.12;59.07
6464;BME280;3265;42.694;23.282;2023-03-20T08:54:31;94930.50;;;11.20;58.32
6464;BME280;3265;42.694;23.282;2023-03-20T08:56:58;94929.00;;;11.30;58.05
6464;BME280;3265;42.694;23.282;2023-03-20T08:59:25;94934.44;;;11.47;57.27
6464;BME280;3265;42.694;23.282;2023-03-20T09:01:51;94937.84;;;11.66;57.62
6464;BME280;3265;42.694;23.282;2023-03-20T09:04:20;94935.84;;;11.86;56.74
6464;BME280;3265;42.694;23.282;2023-03-20T09:06:48;94932.56;;;12.09;55.98
6464;BME280;3265;42.694;23.282;2023-03-20T09:09:15;94933.53;;;12.26;54.53
6464;BME280;3265;42.694;23.282;2023-03-20T09:11:44;94934.06;;;12.46;53.88
6464;BME280;3265;42.694;23.282;2023-03-20T09:14:11;94931.16;;;12.66;52.52
6464;BME280;3265;42.694;23.282;2023-03-20T09:16:38;94927.91;;;12.82;52.36
6464;BME280;3265;42.694;23.282;2023-03-20T09:19:04;94922.38;;;13.01;52.37
6464;BME280;3265;42.694;23.282;2023-03-20T09:21:33;94915.94;;;13.27;51.95
6464;BME280;3265;42.694;23.282;2023-03-20T09:23:59;94916.25;;;13.54;50.24
6464;BME280;3265;42.694;23.282;2023-03-20T09:26:26;94918.13;;;13.82;49.66
6464;BME280;3265;42.694;23.282;2023-03-20T09:28:53;94897.28;;;13.98;49.30
6464;BME280;3265;42.694;23.282;2023-03-20T09:31:20;94911.59;;;14.36;47.63
6464;BME280;3265;42.694;23.282;2023-03-20T09:33:47;94906.41;;;14.52;46.78
6464;BME280;3265;42.694;23.282;2023-03-20T09:36:14;94898.34;;;14.70;47.32
6464;BME280;3265;42.694;23.282;2023-03-20T09:38:43;94878.94;;;14.83;46.11
6464;BME280;3265;42.694;23.282;2023-03-20T09:41:14;94875.50;;;14.99;45.47
6464;BME280;3265;42.694;23.282;2023-03-20T09:43:51;94867.19;;;15.24;45.51
6464;BME280;3265;42.694;23.282;2023-03-20T09:46:31;94869.78;;;15.57;45.08
6464;BME280;3265;42.694;23.282;2023-03-20T09:49:09;94864.91;;;15.87;44.02
6464;BME280;3265;42.694;23.282;2023-03-20T09:51:43;94862.97;;;16.26;43.54
6464;BME280;3265;42.694;23.282;2023-03-20T09:54:21;94868.06;;;16.65;43.02
6464;BME280;3265;42.694;23.282;2023-03-20T09:56:53;94858.28;;;16.92;43.20
6464;BME280;3265;42.694;23.282;2023-03-20T09:59:23;94867.19;;;17.23;41.84
6464;BME280;3265;42.694;23.282;2023-03-20T10:01:54;94851.44;;;17.28;40.63
6464;BME280;3265;42.694;23.282;2023-03-20T10:04:28;94851.47;;;17.33;40.74
6464;BME280;3265;42.694;23.282;2023-03-20T10:06:55;94853.66;;;17.46;41.16
6464;BME280;3265;42.694;23.282;2023-03-20T10:09:25;94843.53;;;17.70;40.80
6464;BME280;3265;42.694;23.282;2023-03-20T10:12:02;94839.94;;;17.91;40.20
6464;BME280;3265;42.694;23.282;2023-03-20T10:14:50;94836.31;;;18.27;39.61
6464;BME280;3265;42.694;23.282;2023-03-20T10:17:28;94835.84;;;18.50;38.91
6464;BME280;3265;42.694;23.282;2023-03-20T10:22:41;94836.09;;;19.14;37.69
6464;BME280;3265;42.694;23.282;2023-03-20T10:25:22;94835.28;;;19.39;37.12
6464;BME280;3265;42.694;23.282;2023-03-20T10:27:55;94831.50;;;19.65;36.30
6464;BME280;3265;42.694;23.282;2023-03-20T10:30:34;94825.50;;;20.04;37.06
6464;BME280;3265;42.694;23.282;2023-03-20T10:33:14;94818.28;;;20.29;35.02
6464;BME280;3265;42.694;23.282;2023-03-20T10:35:50;94833.22;;;20.44;34.49
6464;BME280;3265;42.694;23.282;2023-03-20T10:38:27;94826.50;;;20.18;34.82
6464;BME280;3265;42.694;23.282;2023-03-20T10:40:57;94820.50;;;20.51;34.39
6464;BME280;3265;42.694;23.282;2023-03-20T10:43:28;94825.78;;;20.85;34.28
6464;BME280;3265;42.694;23.282;2023-03-20T10:46:01;94815.59;;;21.31;33.11
6464;BME280;3265;42.694;23.282;2023-03-20T10:48:32;94819.34;;;21.25;32.88
6464;BME280;3265;42.694;23.282;2023-03-20T10:51:02;94815.50;;;21.41;32.15
6464;BME280;3265;42.694;23.282;2023-03-20T10:53:35;94806.97;;;21.68;31.92
6464;BME280;3265;42.694;23.282;2023-03-20T10:56:09;94802.13;;;21.98;32.20
6464;BME280;3265;42.694;23.282;2023-03-20T10:58:39;94800.50;;;22.21;31.47
6464;BME280;3265;42.694;23.282;2023-03-20T11:01:07;94801.53;;;22.57;30.88
6464;BME280;3265;42.694;23.282;2023-03-20T11:03:34;94812.63;;;22.78;30.41
6464;BME280;3265;42.694;23.282;2023-03-20T11:06:07;94804.88;;;23.14;29.68
6464;BME280;3265;42.694;23.282;2023-03-20T11:08:39;94794.28;;;23.28;29.08
6464;BME280;3265;42.694;23.282;2023-03-20T11:11:08;94801.69;;;23.44;29.11
6464;BME280;3265;42.694;23.282;2023-03-20T11:13:36;94790.16;;;23.76;28.65
6464;BME280;3265;42.694;23.282;2023-03-20T11:16:17;94785.22;;;24.10;28.98
6464;BME280;3265;42.694;23.282;2023-03-20T11:18:45;94782.75;;;24.50;27.47
6464;BME280;3265;42.694;23.282;2023-03-20T11:21:17;94785.69;;;24.70;27.83
6464;BME280;3265;42.694;23.282;2023-03-20T11:23:45;94772.75;;;24.77;26.72
6464;BME280;3265;42.694;23.282;2023-03-20T11:26:14;94778.16;;;24.86;26.96
6464;BME280;3265;42.694;23.282;2023-03-20T11:28:47;94771.19;;;24.76;26.47
6464;BME280;3265;42.694;23.282;2023-03-20T11:31:16;94754.84;;;24.83;26.28
6464;BME280;3265;42.694;23.282;2023-03-20T11:33:46;94754.78;;;25.05;26.15
6464;BME280;3265;42.694;23.282;2023-03-20T11:36:22;94759.50;;;25.39;26.43
6464;BME280;3265;42.694;23.282;2023-03-20T11:38:49;94755.34;;;25.55;25.55
6464;BME280;3265;42.694;23.282;2023-03-20T11:41:22;94738.16;;;25.78;26.07
6464;BME280;3265;42.694;23.282;2023-03-20T11:43:49;94752.66;;;26.29;25.67
6464;BME280;3265;42.694;23.282;2023-03-20T11:46:19;94747.34;;;26.20;24.44
6464;BME280;3265;42.694;23.282;2023-03-20T11:49:01;94738.97;;;26.13;24.74
6464;BME280;3265;42.694;23.282;2023-03-20T11:51:29;94715.63;;;26.02;25.09
6464;BME280;3265;42.694;23.282;2023-03-20T11:54:00;94731.75;;;26.65;24.37
6464;BME280;3265;42.694;23.282;2023-03-20T11:56:30;94735.91;;;27.09;23.47
6464;BME280;3265;42.694;23.282;2023-03-20T11:59:01;94722.31;;;27.31;23.32
6464;BME280;3265;42.694;23.282;2023-03-20T12:01:36;94729.31;;;27.15;22.95
6464;BME280;3265;42.694;23.282;2023-03-20T12:04:09;94712.72;;;27.30;22.94
6464;BME280;3265;42.694;23.282;2023-03-20T12:06:42;94711.56;;;27.48;22.33
6464;BME280;3265;42.694;23.282;2023-03-20T12:09:19;94709.03;;;27.81;22.82
6464;BME280;3265;42.694;23.282;2023-03-20T12:11:52;94711.72;;;28.02;22.13
6464;BME280;3265;42.694;23.282;2023-03-20T12:14:25;94715.81;;;28.08;22.04
6464;BME280;3265;42.694;23.282;2023-03-20T12:17:00;94710.03;;;28.39;21.58
6464;BME280;3265;42.694;23.282;2023-03-20T12:19:31;94713.78;;;28.58;20.76
6464;BME280;3265;42.694;23.282;2023-03-20T12:22:03;94698.78;;;28.66;20.94
6464;BME280;3265;42.694;23.282;2023-03-20T12:24:37;94704.22;;;29.02;20.97
6464;BME280;3265;42.694;23.282;2023-03-20T12:27:16;94695.53;;;29.17;20.63
6464;BME280;3265;42.694;23.282;2023-03-20T12:29:48;94708.41;;;29.48;20.40
6464;BME280;3265;42.694;23.282;2023-03-20T12:32:22;94704.25;;;29.51;20.47
6464;BME280;3265;42.694;23.282;2023-03-20T12:34:53;94697.22;;;29.70;19.33
6464;BME280;3265;42.694;23.282;2023-03-20T12:37:22;94706.38;;;29.81;19.59
6464;BME280;3265;42.694;23.282;2023-03-20T12:39:51;94691.41;;;29.93;19.42
6464;BME280;3265;42.694;23.282;2023-03-20T12:42:28;94691.97;;;29.86;18.95
6464;BME280;3265;42.694;23.282;2023-03-20T12:45:00;94685.84;;;30.13;18.98
6464;BME280;3265;42.694;23.282;2023-03-20T12:47:44;94679.25;;;30.51;18.67
6464;BME280;3265;42.694;23.282;2023-03-20T12:50:22;94676.81;;;30.89;18.74
6464;BME280;3265;42.694;23.282;2023-03-20T12:53:01;94672.94;;;31.18;17.92
6464;BME280;3265;42.694;23.282;2023-03-20T12:55:41;94681.72;;;30.99;17.95
6464;BME280;3265;42.694;23.282;2023-03-20T12:58:21;94684.81;;;31.01;17.85
6464;BME280;3265;42.694;23.282;2023-03-20T13:00:55;94670.84;;;31.11;18.28
6464;BME280;3265;42.694;23.282;2023-03-20T13:06:21;94661.19;;;30.35;18.17
6464;BME280;3265;42.694;23.282;2023-03-20T13:09:04;94665.78;;;30.63;18.07
6464;BME280;3265;42.694;23.282;2023-03-20T13:11:42;94618.91;;;30.17;17.56
6464;BME280;3265;42.694;23.282;2023-03-20T13:14:21;94615.97;;;28.94;17.67
6464;BME280;3265;42.694;23.282;2023-03-20T13:16:57;94605.25;;;28.82;18.88
6464;BME280;3265;42.694;23.282;2023-03-20T13:19:31;94636.84;;;29.49;18.38
6464;BME280;3265;42.694;23.282;2023-03-20T13:22:06;94638.72;;;29.60;18.40
6464;BME280;3265;42.694;23.282;2023-03-20T13:24:39;94642.78;;;29.94;18.17
6464;BME280;3265;42.694;23.282;2023-03-20T13:27:21;94633.91;;;30.33;17.51
6464;BME280;3265;42.694;23.282;2023-03-20T13:29:57;94636.66;;;30.49;17.88
6464;BME280;3265;42.694;23.282;2023-03-20T13:32:32;94635.19;;;30.52;17.26
6464;BME280;3265;42.694;23.282;2023-03-20T13:35:16;94635.16;;;30.36;17.34
6464;BME280;3265;42.694;23.282;2023-03-20T13:37:47;94626.53;;;30.15;17.61
6464;BME280;3265;42.694;23.282;2023-03-20T13:40:20;94597.91;;;29.79;17.93
6464;BME280;3265;42.694;23.282;2023-03-20T13:42:51;94618.25;;;29.80;17.79
6464;BME280;3265;42.694;23.282;2023-03-20T13:45:26;94619.78;;;29.17;18.00
6464;BME280;3265;42.694;23.282;2023-03-20T13:47:57;94604.13;;;28.70;19.06
6464;BME280;3265;42.694;23.282;2023-03-20T13:50:39;94593.88;;;28.28;19.28
6464;BME280;3265;42.694;23.282;2023-03-20T13:53:15;94612.34;;;28.00;19.76